| time (UTC) | temp C | wind direction | speed KPH | gust KPH | rain 1hr cm | rain 24hr cm | rain mn cm | humidity % | barometer mb |
| 20260506183004 | 15 | 223 | 8.0 | 25.7 | 0.20 | 0.30 | 0.30 | 93 | 1007.5 |
| 20260506182503 | 15 | 223 | 8.0 | 24.1 | 0.20 | 0.28 | 0.28 | 93 | 1007.9 |
| 20260506182003 | 15 | 245 | 9.7 | 29.0 | 0.23 | 0.28 | 0.28 | 92 | 1007.5 |
| 20260506181503 | 15 | 264 | 8.0 | 29.0 | 0.20 | 0.25 | 0.25 | 92 | 1007.5 |
| 20260506181003 | 15 | 312 | 4.8 | 14.5 | 0.18 | 0.23 | 0.23 | 92 | 1007.5 |
| 20260506180503 | 15 | 310 | 4.8 | 14.5 | 0.15 | 0.20 | 0.20 | 92 | 1007.2 |
| 20260506180004 | 15 | 336 | 6.4 | 14.5 | 0.18 | 0.20 | 0.20 | 91 | 1007.5 |
| 20260506175503 | 15 | 322 | 6.4 | 16.1 | 0.15 | 0.18 | 0.18 | 91 | 1007.2 |
| 20260506175003 | 15 | 301 | 8.0 | 19.3 | 0.15 | 0.18 | 0.18 | 90 | 1007.5 |
| 20260506174503 | 15 | 303 | 8.0 | 19.3 | 0.13 | 0.15 | 0.15 | 89 | 1007.5 |
| 20260506174003 | 15 | 250 | 8.0 | 29.0 | 0.10 | 0.13 | 0.13 | 88 | 1007.5 |
| 20260506173503 | 15 | 128 | 8.0 | 29.0 | 0.10 | 0.13 | 0.13 | 87 | 1007.9 |
| 20260506173003 | 16 | 90 | 4.8 | 22.5 | 0.08 | 0.10 | 0.10 | 86 | 1007.5 |
| 20260506172503 | 16 | 270 | 4.8 | 20.9 | 0.05 | 0.08 | 0.08 | 85 | 1007.9 |
| 20260506172003 | 16 | 346 | 4.8 | 19.3 | 0.03 | 0.05 | 0.05 | 82 | 1008.2 |
| 20260506171503 | 16 | 1 | 3.2 | 14.5 | 0.03 | 0.05 | 0.05 | 82 | 1008.2 |
| 20260506171003 | 16 | 347 | 3.2 | 14.5 | 0.03 | 0.05 | 0.05 | 80 | 1008.2 |
| 20260506170503 | 17 | 12 | 3.2 | 9.7 | 0.05 | 0.05 | 0.05 | 80 | 1008.6 |
| 20260506170004 | 17 | 347 | 3.2 | 11.3 | 0.03 | 0.03 | 0.03 | 79 | 1008.6 |
| 20260506165503 | 17 | 326 | 3.2 | 11.3 | 0.03 | 0.03 | 0.03 | 78 | 1008.6 |
| 20260506165003 | 17 | 3 | 4.8 | 27.4 | 0.03 | 0.03 | 0.03 | 79 | 1008.6 |
| 20260506164503 | 17 | 351 | 6.4 | 27.4 | 0.03 | 0.03 | 0.03 | 77 | 1008.6 |
| 20260506164003 | 17 | 239 | 6.4 | 22.5 | 0.03 | 0.03 | 0.03 | 75 | 1008.6 |
| 20260506163503 | 17 | 253 | 8.0 | 22.5 | 0.03 | 0.03 | 0.03 | 75 | 1008.6 |
| 20260506163003 | 17 | 278 | 6.4 | 22.5 | 0.03 | 0.03 | 0.03 | 75 | 1008.2 |
| 20260506162503 | 18 | 286 | 6.4 | 22.5 | 0.03 | 0.03 | 0.03 | 74 | 1008.2 |
| 20260506162003 | 17 | 303 | 8.0 | 20.9 | 0.03 | 0.03 | 0.03 | 75 | 1008.6 |
| 20260506161503 | 18 | 282 | 8.0 | 20.9 | 0.03 | 0.03 | 0.03 | 75 | 1008.2 |
| 20260506161003 | 18 | 284 | 8.0 | 20.9 | 0.03 | 0.03 | 0.03 | 74 | 1008.6 |
| 20260506160503 | 18 | 274 | 6.4 | 17.7 | 0.00 | 0.00 | 0.00 | 72 | 1008.2 |
| 20260506160003 | 18 | 300 | 4.8 | 16.1 | 0.00 | 0.00 | 0.00 | 71 | 1008.6 |
| 20260506155503 | 18 | 256 | 6.4 | 22.5 | 0.00 | 0.00 | 0.00 | 72 | 1008.6 |
| 20260506155003 | 18 | 230 | 8.0 | 22.5 | 0.00 | 0.00 | 0.00 | 71 | 1008.9 |
| 20260506154503 | 18 | 315 | 8.0 | 25.7 | 0.00 | 0.00 | 0.00 | 71 | 1008.6 |
| 20260506154003 | 18 | 331 | 6.4 | 25.7 | 0.00 | 0.00 | 0.00 | 71 | 1008.9 |
| 20260506153503 | 18 | 311 | 4.8 | 16.1 | 0.00 | 0.00 | 0.00 | 69 | 1009.3 |
| 20260506153003 | 18 | 263 | 6.4 | 20.9 | 0.00 | 0.00 | 0.00 | 70 | 1008.9 |
| 20260506152503 | 18 | 283 | 6.4 | 20.9 | 0.00 | 0.00 | 0.00 | 70 | 1008.6 |
| 20260506152003 | 18 | 336 | 6.4 | 19.3 | 0.00 | 0.00 | 0.00 | 70 | 1008.6 |
| 20260506151503 | 18 | 266 | 8.0 | 25.7 | 0.00 | 0.00 | 0.00 | 69 | 1008.6 |
| 20260506151003 | 18 | 256 | 8.0 | 25.7 | 0.00 | 0.00 | 0.00 | 69 | 1008.9 |
| 20260506150504 | 19 | 273 | 8.0 | 24.1 | 0.00 | 0.00 | 0.00 | 69 | 1008.6 |
| 20260506150003 | 19 | 270 | 6.4 | 22.5 | 0.00 | 0.00 | 0.00 | 68 | 1008.6 |
| 20260506145503 | 19 | 255 | 4.8 | 14.5 | 0.00 | 0.00 | 0.00 | 68 | 1008.9 |
| 20260506145003 | 19 | 241 | 6.4 | 16.1 | 0.00 | 0.00 | 0.00 | 68 | 1008.6 |
| 20260506144503 | 19 | 270 | 6.4 | 16.1 | 0.00 | 0.00 | 0.00 | 68 | 1008.9 |
| 20260506144003 | 19 | 283 | 6.4 | 16.1 | 0.00 | 0.00 | 0.00 | 69 | 1008.6 |
| 20260506143503 | 18 | 254 | 8.0 | 35.4 | 0.00 | 0.00 | 0.00 | 69 | 1008.6 |
| 20260506143003 | 19 | 244 | 8.0 | 35.4 | 0.00 | 0.00 | 0.00 | 69 | 1008.9 |
| 20260506142503 | 19 | 262 | 8.0 | 25.7 | 0.00 | 0.00 | 0.00 | 68 | 1008.9 |
| 20260506142003 | 19 | 257 | 6.4 | 25.7 | 0.00 | 0.00 | 0.00 | 68 | 1008.9 |
| 20260506141503 | 19 | 272 | 8.0 | 24.1 | 0.00 | 0.00 | 0.00 | 69 | 1008.9 |
| 20260506141003 | 19 | 303 | 8.0 | 24.1 | 0.00 | 0.00 | 0.00 | 68 | 1008.9 |
| 20260506140503 | 19 | 358 | 6.4 | 20.9 | 0.00 | 0.00 | 0.00 | 69 | 1008.9 |
| 20260506140003 | 18 | 360 | 6.4 | 20.9 | 0.00 | 0.00 | 0.00 | 69 | 1008.9 |
| 20260506135503 | 18 | 305 | 6.4 | 22.5 | 0.00 | 0.00 | 0.00 | 70 | 1008.9 |
| 20260506135003 | 19 | 267 | 6.4 | 24.1 | 0.00 | 0.00 | 0.00 | 70 | 1009.3 |
| 20260506134503 | 18 | 327 | 6.4 | 24.1 | 0.00 | 0.00 | 0.00 | 72 | 1008.9 |
| 20260506134003 | 18 | 1 | 6.4 | 19.3 | 0.00 | 0.00 | 0.00 | 72 | 1008.9 |
| 20260506133503 | 18 | 348 | 6.4 | 17.7 | 0.00 | 0.00 | 0.00 | 71 | 1008.9 |
| 20260506133003 | 18 | 285 | 6.4 | 17.7 | 0.00 | 0.00 | 0.00 | 72 | 1008.9 |
| 20260506132503 | 18 | 260 | 4.8 | 17.7 | 0.00 | 0.00 | 0.00 | 73 | 1008.9 |
| 20260506132003 | 18 | 267 | 4.8 | 19.3 | 0.00 | 0.00 | 0.00 | 73 | 1008.9 |
| 20260506131503 | 17 | 194 | 4.8 | 24.1 | 0.00 | 0.00 | 0.00 | 75 | 1009.3 |
| 20260506131003 | 17 | 230 | 4.8 | 24.1 | 0.00 | 0.00 | 0.00 | 75 | 1008.9 |
| 20260506130503 | 17 | 297 | 6.4 | 16.1 | 0.00 | 0.00 | 0.00 | 77 | 1009.3 |
| 20260506130004 | 17 | 329 | 8.0 | 17.7 | 0.00 | 0.00 | 0.00 | 77 | 1009.3 |
| 20260506125503 | 17 | 306 | 6.4 | 17.7 | 0.00 | 0.00 | 0.00 | 76 | 1008.9 |
| 20260506125003 | 17 | 266 | 4.8 | 16.1 | 0.00 | 0.00 | 0.00 | 77 | 1009.3 |
| 20260506124503 | 17 | 286 | 4.8 | 17.7 | 0.00 | 0.00 | 0.00 | 78 | 1009.3 |
| 20260506124003 | 17 | 288 | 6.4 | 24.1 | 0.00 | 0.00 | 0.00 | 78 | 1009.6 |
| 20260506123503 | 16 | 252 | 8.0 | 27.4 | 0.00 | 0.00 | 0.00 | 78 | 1009.6 |
| 20260506123003 | 16 | 251 | 6.4 | 27.4 | 0.00 | 0.00 | 0.00 | 79 | 1009.6 |
| 20260506122503 | 16 | 286 | 4.8 | 24.1 | 0.00 | 0.00 | 0.00 | 79 | 1009.6 |
| 20260506122003 | 16 | 279 | 4.8 | 24.1 | 0.00 | 0.00 | 0.00 | 79 | 1009.9 |
| 20260506121503 | 16 | 276 | 3.2 | 11.3 | 0.00 | 0.00 | 0.00 | 80 | 1009.6 |
| 20260506121003 | 16 | 244 | 3.2 | 12.9 | 0.00 | 0.00 | 0.00 | 80 | 1009.6 |
| 20260506120503 | 16 | 229 | 4.8 | 12.9 | 0.00 | 0.00 | 0.00 | 81 | 1009.6 |
| 20260506120004 | 16 | 254 | 4.8 | 12.9 | 0.00 | 0.00 | 0.00 | 81 | 1009.9 |
| 20260506115503 | 15 | 265 | 4.8 | 19.3 | 0.00 | 0.00 | 0.00 | 83 | 1009.6 |
| 20260506115003 | 15 | 270 | 6.4 | 19.3 | 0.00 | 0.00 | 0.00 | 84 | 1009.6 |
| 20260506114503 | 15 | 268 | 4.8 | 17.7 | 0.00 | 0.00 | 0.00 | 84 | 1009.6 |
| 20260506114003 | 15 | 234 | 6.4 | 20.9 | 0.00 | 0.00 | 0.00 | 85 | 1009.6 |
| 20260506113503 | 15 | 244 | 6.4 | 20.9 | 0.00 | 0.00 | 0.00 | 85 | 1009.6 |
| 20260506113003 | 14 | 301 | 6.4 | 17.7 | 0.00 | 0.00 | 0.00 | 86 | 1009.6 |
| 20260506112503 | 14 | 2 | 6.4 | 17.7 | 0.00 | 0.00 | 0.00 | 87 | 1009.6 |
| 20260506112003 | 14 | 9 | 4.8 | 14.5 | 0.00 | 0.00 | 0.00 | 87 | 1009.6 |
| 20260506111503 | 14 | 308 | 4.8 | 20.9 | 0.00 | 0.00 | 0.00 | 87 | 1009.6 |
| 20260506111003 | 14 | 249 | 4.8 | 20.9 | 0.00 | 0.00 | 0.00 | 88 | 1009.9 |
| 20260506110503 | 13 | 303 | 4.8 | 12.9 | 0.00 | 0.00 | 0.00 | 88 | 1009.9 |
| 20260506110003 | 13 | 322 | 4.8 | 12.9 | 0.00 | 0.00 | 0.00 | 88 | 1009.9 |
| 20260506105503 | 13 | 273 | 4.8 | 12.9 | 0.00 | 0.00 | 0.00 | 88 | 1009.9 |
| 20260506105003 | 13 | 289 | 4.8 | 12.9 | 0.00 | 0.00 | 0.00 | 89 | 1009.9 |
| 20260506104503 | 13 | 278 | 3.2 | 11.3 | 0.00 | 0.00 | 0.00 | 89 | 1009.9 |
| 20260506104003 | 13 | 338 | 3.2 | 11.3 | 0.00 | 0.00 | 0.00 | 89 | 1009.6 |
| 20260506103503 | 13 | 11 | 3.2 | 11.3 | 0.00 | 0.00 | 0.00 | 90 | 1009.9 |
| 20260506103003 | 13 | 12 | 1.6 | 9.7 | 0.00 | 0.00 | 0.00 | 90 | 1009.9 |
| 20260506102503 | 13 | 249 | 3.2 | 9.7 | 0.00 | 0.00 | 0.00 | 90 | 1009.9 |
| 20260506102003 | 13 | 321 | 3.2 | 9.7 | 0.00 | 0.00 | 0.00 | 91 | 1009.6 |
| 20260506101503 | 13 | 19 | 3.2 | 9.7 | 0.00 | 0.00 | 0.00 | 91 | 1009.6 |
| 20260506101003 | 13 | 3 | 3.2 | 12.9 | 0.00 | 0.00 | 0.00 | 91 | 1009.6 |
| 20260506100503 | 13 | 338 | 3.2 | 12.9 | 0.00 | 0.00 | 0.00 | 90 | 1009.6 |
| 20260506100004 | 13 | 327 | 3.2 | 11.3 | 0.00 | 0.00 | 0.00 | 90 | 1009.6 |
| 20260506095503 | 13 | 326 | 3.2 | 11.3 | 0.00 | 0.00 | 0.00 | 90 | 1009.6 |
| 20260506095003 | 13 | 226 | 3.2 | 12.9 | 0.00 | 0.00 | 0.00 | 90 | 1009.6 |
| 20260506094503 | 13 | 33 | 3.2 | 14.5 | 0.00 | 0.00 | 0.00 | 89 | 1009.6 |
| 20260506094003 | 13 | 31 | 3.2 | 14.5 | 0.00 | 0.00 | 0.00 | 89 | 1009.6 |
| 20260506093503 | 13 | 184 | 3.2 | 12.9 | 0.00 | 0.00 | 0.00 | 89 | 1009.6 |
| 20260506093003 | 13 | 22 | 3.2 | 12.9 | 0.00 | 0.00 | 0.00 | 89 | 1009.6 |
| 20260506092503 | 13 | 356 | 3.2 | 9.7 | 0.00 | 0.00 | 0.00 | 88 | 1009.6 |
| 20260506092003 | 13 | 7 | 1.6 | 9.7 | 0.00 | 0.00 | 0.00 | 88 | 1009.6 |
| 20260506091503 | 13 | 26 | 1.6 | 12.9 | 0.00 | 0.00 | 0.00 | 87 | 1009.6 |
| 20260506091003 | 13 | 11 | 3.2 | 12.9 | 0.00 | 0.00 | 0.00 | 87 | 1009.6 |
| 20260506090503 | 13 | 258 | 3.2 | 19.3 | 0.00 | 0.00 | 0.00 | 87 | 1009.6 |
| 20260506090003 | 13 | 282 | 3.2 | 19.3 | 0.00 | 0.00 | 0.00 | 87 | 1009.6 |
| 20260506085503 | 13 | 282 | 3.2 | 14.5 | 0.00 | 0.00 | 0.00 | 87 | 1009.6 |
| 20260506085003 | 13 | 353 | 3.2 | 14.5 | 0.00 | 0.00 | 0.00 | 86 | 1009.6 |
| 20260506084503 | 13 | 326 | 4.8 | 14.5 | 0.00 | 0.00 | 0.00 | 86 | 1009.6 |
| 20260506084003 | 13 | 254 | 4.8 | 12.9 | 0.00 | 0.00 | 0.00 | 86 | 1009.6 |
| 20260506083503 | 13 | 301 | 3.2 | 11.3 | 0.00 | 0.00 | 0.00 | 86 | 1009.6 |
| 20260506083003 | 13 | 261 | 4.8 | 19.3 | 0.00 | 0.00 | 0.00 | 85 | 1009.9 |
| 20260506082503 | 14 | 250 | 4.8 | 30.6 | 0.00 | 0.00 | 0.00 | 85 | 1009.9 |
| 20260506082003 | 14 | 297 | 6.4 | 30.6 | 0.00 | 0.00 | 0.00 | 85 | 1009.6 |
| 20260506081503 | 14 | 250 | 6.4 | 20.9 | 0.00 | 0.00 | 0.00 | 85 | 1009.6 |
| 20260506081003 | 13 | 212 | 4.8 | 19.3 | 0.00 | 0.00 | 0.00 | 85 | 1009.6 |
| 20260506080503 | 14 | 215 | 4.8 | 17.7 | 0.00 | 0.00 | 0.00 | 85 | 1009.6 |
| 20260506073503 | 14 | 260 | 4.8 | 19.3 | 0.00 | 0.00 | 0.00 | 83 | 1009.6 |
| 20260506073003 | 14 | 246 | 4.8 | 12.9 | 0.00 | 0.00 | 0.00 | 83 | 1009.6 |
| 20260506072503 | 14 | 204 | 4.8 | 14.5 | 0.00 | 0.00 | 0.00 | 83 | 1009.6 |
| 20260506072003 | 14 | 225 | 6.4 | 16.1 | 0.00 | 0.00 | 0.00 | 82 | 1009.6 |
| 20260506071503 | 14 | 230 | 6.4 | 24.1 | 0.00 | 0.00 | 0.00 | 82 | 1009.6 |
| 20260506071003 | 14 | 220 | 6.4 | 24.1 | 0.00 | 0.00 | 0.00 | 82 | 1009.6 |
| 20260506070503 | 14 | 215 | 6.4 | 22.5 | 0.00 | 0.00 | 0.00 | 82 | 1009.6 |
| 20260506062503 | 15 | 258 | 4.8 | 14.5 | 0.00 | 0.00 | 0.00 | 81 | 1009.3 |
| 20260506062003 | 15 | 237 | 4.8 | 16.1 | 0.00 | 0.00 | 0.00 | 80 | 1009.6 |
| 20260506061503 | 15 | 278 | 4.8 | 16.1 | 0.00 | 0.00 | 0.00 | 80 | 1009.3 |
| 20260506061003 | 15 | 256 | 4.8 | 12.9 | 0.00 | 0.00 | 0.00 | 80 | 1009.6 |
| 20260506060503 | 15 | 234 | 4.8 | 19.3 | 0.00 | 0.00 | 0.00 | 79 | 1009.3 |
| 20260506051003 | 16 | 250 | 4.8 | 12.9 | 0.00 | 0.00 | 0.00 | 75 | 1009.6 |
| 20260506050503 | 16 | 234 | 4.8 | 14.5 | 0.00 | 0.00 | 0.00 | 75 | 1009.6 |
| 20260506045003 | 16 | 242 | 4.8 | 17.7 | 0.00 | 0.00 | 0.00 | 73 | 1009.6 |
| 20260506044503 | 16 | 242 | 4.8 | 17.7 | 0.00 | 0.00 | 0.00 | 73 | 1009.9 |
| 20260506044003 | 16 | 285 | 4.8 | 12.9 | 0.00 | 0.00 | 0.00 | 72 | 1009.9 |
| 20260506043503 | 16 | 287 | 4.8 | 16.1 | 0.00 | 0.00 | 0.00 | 72 | 1009.9 |
| 20260506043003 | 16 | 224 | 4.8 | 16.1 | 0.00 | 0.00 | 0.00 | 71 | 1009.9 |
| 20260506042503 | 16 | 230 | 3.2 | 14.5 | 0.00 | 0.00 | 0.00 | 71 | 1009.9 |
| 20260506042003 | 16 | 235 | 4.8 | 14.5 | 0.00 | 0.00 | 0.00 | 70 | 1009.9 |
| 20260506041503 | 17 | 242 | 6.4 | 14.5 | 0.00 | 0.00 | 0.00 | 69 | 1009.6 |
| 20260506041003 | 17 | 278 | 6.4 | 14.5 | 0.00 | 0.00 | 0.00 | 69 | 1009.6 |
| 20260506040503 | 17 | 239 | 4.8 | 14.5 | 0.00 | 0.00 | 0.00 | 69 | 1009.9 |
| 20260506040004 | 17 | 259 | 4.8 | 17.7 | 0.00 | 0.00 | 0.00 | 68 | 1009.9 |
| 20260506035503 | 17 | 298 | 4.8 | 17.7 | 0.00 | 0.00 | 0.00 | 68 | 1009.9 |
| 20260506035004 | 17 | 238 | 4.8 | 24.1 | 0.00 | 0.00 | 0.00 | 68 | 1009.6 |
| 20260506034503 | 17 | 235 | 4.8 | 24.1 | 0.00 | 0.00 | 0.00 | 68 | 1009.9 |
| 20260506034003 | 17 | 270 | 4.8 | 12.9 | 0.00 | 0.00 | 0.00 | 68 | 1009.9 |
| 20260506033503 | 17 | 242 | 4.8 | 17.7 | 0.00 | 0.00 | 0.00 | 68 | 1009.9 |
| 20260506033004 | 17 | 276 | 4.8 | 17.7 | 0.00 | 0.00 | 0.00 | 67 | 1009.6 |
| 20260506032503 | 17 | 311 | 4.8 | 12.9 | 0.00 | 0.00 | 0.00 | 67 | 1009.6 |
| 20260506032003 | 17 | 305 | 4.8 | 14.5 | 0.00 | 0.00 | 0.00 | 67 | 1009.6 |
| 20260506031503 | 17 | 249 | 6.4 | 22.5 | 0.00 | 0.00 | 0.00 | 67 | 1009.9 |
| 20260506031003 | 17 | 240 | 6.4 | 22.5 | 0.00 | 0.00 | 0.00 | 67 | 1009.9 |
| 20260506030503 | 17 | 250 | 4.8 | 22.5 | 0.00 | 0.00 | 0.00 | 67 | 1009.6 |
| 20260506030003 | 17 | 223 | 4.8 | 22.5 | 0.00 | 0.00 | 0.00 | 66 | 1009.6 |
| 20260506025503 | 17 | 234 | 3.2 | 29.0 | 0.00 | 0.00 | 0.00 | 66 | 1009.6 |
| 20260506025003 | 17 | 241 | 4.8 | 29.0 | 0.00 | 0.00 | 0.00 | 66 | 1009.6 |
| 20260506024503 | 17 | 230 | 6.4 | 24.1 | 0.00 | 0.00 | 0.00 | 66 | 1009.6 |
| 20260506024003 | 17 | 246 | 6.4 | 17.7 | 0.00 | 0.00 | 0.00 | 66 | 1009.6 |
| 20260506023503 | 17 | 259 | 4.8 | 17.7 | 0.00 | 0.00 | 0.00 | 66 | 1009.6 |
| 20260506023003 | 17 | 241 | 6.4 | 24.1 | 0.00 | 0.00 | 0.00 | 65 | 1009.3 |
| 20260506022503 | 17 | 229 | 6.4 | 24.1 | 0.00 | 0.00 | 0.00 | 65 | 1009.6 |
| 20260506022003 | 17 | 237 | 6.4 | 22.5 | 0.00 | 0.00 | 0.00 | 65 | 1009.6 |
| 20260506021503 | 17 | 235 | 6.4 | 22.5 | 0.00 | 0.00 | 0.00 | 65 | 1009.6 |
| 20260506021003 | 17 | 229 | 4.8 | 19.3 | 0.00 | 0.00 | 0.00 | 65 | 1009.6 |
| 20260506020503 | 17 | 295 | 4.8 | 11.3 | 0.00 | 0.00 | 0.00 | 65 | 1009.3 |
| 20260506020003 | 17 | 285 | 4.8 | 12.9 | 0.00 | 0.00 | 0.00 | 65 | 1009.3 |
| 20260506015503 | 17 | 274 | 4.8 | 14.5 | 0.00 | 0.00 | 0.00 | 64 | 1009.6 |
| 20260506015003 | 17 | 246 | 4.8 | 22.5 | 0.00 | 0.00 | 0.00 | 64 | 1009.3 |
| 20260506014503 | 17 | 247 | 6.4 | 22.5 | 0.00 | 0.00 | 0.00 | 64 | 1009.3 |
| 20260506014003 | 17 | 304 | 4.8 | 20.9 | 0.00 | 0.00 | 0.00 | 64 | 1008.9 |
| 20260506013503 | 17 | 339 | 4.8 | 19.3 | 0.00 | 0.00 | 0.00 | 63 | 1009.3 |
| 20260506013003 | 17 | 337 | 4.8 | 19.3 | 0.00 | 0.00 | 0.00 | 63 | 1009.3 |
| 20260506012503 | 17 | 328 | 4.8 | 17.7 | 0.00 | 0.00 | 0.00 | 63 | 1009.3 |
| 20260506012003 | 17 | 244 | 6.4 | 24.1 | 0.00 | 0.00 | 0.00 | 62 | 1008.9 |
| 20260506011503 | 17 | 254 | 6.4 | 24.1 | 0.00 | 0.00 | 0.00 | 62 | 1008.9 |
| 20260506011003 | 17 | 333 | 6.4 | 14.5 | 0.00 | 0.00 | 0.00 | 62 | 1008.6 |
| 20260506010503 | 17 | 334 | 6.4 | 14.5 | 0.00 | 0.00 | 0.00 | 61 | 1008.9 |
| 20260506010003 | 17 | 289 | 4.8 | 12.9 | 0.00 | 0.00 | 0.00 | 61 | 1008.6 |
| 20260506005503 | 18 | 238 | 4.8 | 16.1 | 0.00 | 0.00 | 0.00 | 60 | 1008.6 |
| 20260506005003 | 18 | 239 | 4.8 | 16.1 | 0.00 | 0.00 | 0.00 | 60 | 1008.6 |
| 20260506004504 | 18 | 281 | 6.4 | 16.1 | 0.00 | 0.00 | 0.00 | 59 | 1008.6 |
| 20260506004003 | 18 | 261 | 4.8 | 19.3 | 0.00 | 0.00 | 0.00 | 59 | 1008.2 |
| 20260506003503 | 18 | 262 | 4.8 | 20.9 | 0.00 | 0.00 | 0.00 | 59 | 1007.9 |
| 20260506003003 | 18 | 320 | 4.8 | 20.9 | 0.00 | 0.00 | 0.00 | 58 | 1007.9 |
| 20260506002503 | 18 | 297 | 6.4 | 22.5 | 0.00 | 0.00 | 0.00 | 58 | 1008.2 |
| 20260506002003 | 18 | 261 | 6.4 | 22.5 | 0.00 | 0.00 | 0.00 | 58 | 1007.9 |
| 20260506001503 | 18 | 276 | 4.8 | 16.1 | 0.00 | 0.00 | 0.00 | 58 | 1007.9 |
| 20260506001003 | 18 | 300 | 4.8 | 16.1 | 0.00 | 0.00 | 0.00 | 59 | 1007.9 |
| 20260506000503 | 18 | 265 | 4.8 | 14.5 | 0.00 | 0.00 | 0.00 | 58 | 1007.5 |
| 20260506000003 | 18 | 238 | 6.4 | 16.1 | 0.00 | 0.00 | 0.00 | 58 | 1007.9 |
| 20260505235503 | 19 | 276 | 6.4 | 19.3 | 0.00 | 0.00 | 0.00 | 58 | 1007.5 |
| 20260505235003 | 19 | 256 | 6.4 | 19.3 | 0.00 | 0.00 | 0.00 | 58 | 1007.5 |
| 20260505234503 | 19 | 266 | 4.8 | 17.7 | 0.00 | 0.00 | 0.00 | 57 | 1007.5 |
| 20260505234003 | 20 | 305 | 4.8 | 16.1 | 0.00 | 0.00 | 0.00 | 57 | 1007.5 |
| 20260505233503 | 20 | 242 | 6.4 | 19.3 | 0.00 | 0.00 | 0.00 | 56 | 1007.5 |
| 20260505233003 | 20 | 251 | 6.4 | 19.3 | 0.00 | 0.00 | 0.00 | 56 | 1007.5 |
| 20260505232503 | 20 | 321 | 8.0 | 24.1 | 0.00 | 0.00 | 0.00 | 56 | 1007.2 |
| 20260505232003 | 20 | 277 | 8.0 | 25.7 | 0.00 | 0.00 | 0.00 | 55 | 1007.5 |
| 20260505231503 | 20 | 268 | 6.4 | 25.7 | 0.00 | 0.00 | 0.00 | 55 | 1007.2 |
| 20260505231003 | 20 | 288 | 4.8 | 17.7 | 0.00 | 0.00 | 0.00 | 55 | 1007.2 |
| 20260505230503 | 20 | 291 | 6.4 | 35.4 | 0.00 | 0.00 | 0.00 | 55 | 1007.2 |
| 20260505230003 | 20 | 259 | 8.0 | 35.4 | 0.00 | 0.00 | 0.00 | 54 | 1007.2 |
| 20260505225504 | 20 | 242 | 8.0 | 20.9 | 0.00 | 0.00 | 0.00 | 54 | 1007.2 |
| 20260505225003 | 21 | 248 | 8.0 | 27.4 | 0.00 | 0.00 | 0.00 | 54 | 1006.9 |
| 20260505224503 | 21 | 285 | 8.0 | 27.4 | 0.00 | 0.00 | 0.00 | 53 | 1006.5 |
| 20260505224003 | 21 | 262 | 9.7 | 35.4 | 0.00 | 0.00 | 0.00 | 54 | 1006.5 |
| 20260505223503 | 21 | 263 | 8.0 | 35.4 | 0.00 | 0.00 | 0.00 | 53 | 1006.5 |
| 20260505223003 | 21 | 304 | 6.4 | 33.8 | 0.00 | 0.00 | 0.00 | 54 | 1006.9 |
| 20260505222503 | 21 | 323 | 6.4 | 33.8 | 0.00 | 0.00 | 0.00 | 53 | 1007.2 |
| 20260505222003 | 21 | 291 | 6.4 | 29.0 | 0.00 | 0.00 | 0.00 | 52 | 1007.2 |
| 20260505221503 | 22 | 271 | 6.4 | 22.5 | 0.00 | 0.00 | 0.00 | 52 | 1007.2 |
| 20260505221003 | 21 | 328 | 4.8 | 14.5 | 0.00 | 0.00 | 0.00 | 53 | 1006.9 |
| 20260505220503 | 21 | 3 | 4.8 | 11.3 | 0.00 | 0.00 | 0.00 | 54 | 1006.9 |
| 20260505220003 | 21 | 334 | 6.4 | 19.3 | 0.00 | 0.00 | 0.00 | 53 | 1007.2 |
| 20260505215503 | 22 | 328 | 8.0 | 19.3 | 0.00 | 0.00 | 0.00 | 53 | 1007.2 |
| 20260505215003 | 22 | 319 | 6.4 | 22.5 | 0.00 | 0.00 | 0.00 | 52 | 1006.9 |
| 20260505214503 | 22 | 279 | 6.4 | 22.5 | 0.00 | 0.00 | 0.00 | 52 | 1006.9 |
| 20260505214003 | 22 | 263 | 6.4 | 32.2 | 0.00 | 0.00 | 0.00 | 51 | 1006.9 |
| 20260505213503 | 22 | 260 | 8.0 | 32.2 | 0.00 | 0.00 | 0.00 | 51 | 1006.5 |
| 20260505213003 | 22 | 296 | 8.0 | 20.9 | 0.00 | 0.00 | 0.00 | 50 | 1006.9 |
| 20260505212503 | 22 | 316 | 8.0 | 22.5 | 0.00 | 0.00 | 0.00 | 51 | 1006.5 |
| 20260505212003 | 22 | 316 | 8.0 | 22.5 | 0.00 | 0.00 | 0.00 | 50 | 1006.5 |
| 20260505211503 | 22 | 297 | 6.4 | 14.5 | 0.00 | 0.00 | 0.00 | 50 | 1006.5 |
| 20260505211003 | 22 | 279 | 6.4 | 16.1 | 0.00 | 0.00 | 0.00 | 50 | 1006.5 |
| 20260505210503 | 22 | 291 | 6.4 | 20.9 | 0.00 | 0.00 | 0.00 | 50 | 1006.5 |
| 20260505210003 | 22 | 313 | 6.4 | 22.5 | 0.00 | 0.00 | 0.00 | 51 | 1007.2 |
| 20260505205503 | 23 | 314 | 8.0 | 22.5 | 0.00 | 0.00 | 0.00 | 50 | 1006.9 |
| 20260505205003 | 23 | 284 | 8.0 | 22.5 | 0.00 | 0.00 | 0.00 | 49 | 1006.9 |
| 20260505204503 | 23 | 317 | 8.0 | 22.5 | 0.00 | 0.00 | 0.00 | 48 | 1006.5 |
| 20260505204003 | 23 | 333 | 6.4 | 22.5 | 0.00 | 0.00 | 0.00 | 50 | 1006.9 |
| 20260505203503 | 23 | 307 | 8.0 | 22.5 | 0.00 | 0.00 | 0.00 | 49 | 1006.5 |
| 20260505203003 | 23 | 297 | 9.7 | 22.5 | 0.00 | 0.00 | 0.00 | 47 | 1007.2 |
| 20260505202503 | 24 | 323 | 6.4 | 22.5 | 0.00 | 0.00 | 0.00 | 46 | 1006.5 |
| 20260505202003 | 24 | 353 | 6.4 | 19.3 | 0.00 | 0.00 | 0.00 | 49 | 1006.9 |
| 20260505201503 | 24 | 337 | 6.4 | 19.3 | 0.00 | 0.00 | 0.00 | 48 | 1006.5 |
| 20260505201003 | 24 | 338 | 8.0 | 25.7 | 0.00 | 0.00 | 0.00 | 47 | 1006.9 |
| 20260505200503 | 24 | 290 | 9.7 | 30.6 | 0.00 | 0.00 | 0.00 | 47 | 1006.9 |
| 20260505200003 | 24 | 297 | 9.7 | 40.2 | 0.00 | 0.00 | 0.00 | 46 | 1006.9 |
| 20260505195503 | 24 | 308 | 9.7 | 40.2 | 0.00 | 0.00 | 0.00 | 46 | 1006.9 |
| 20260505195003 | 25 | 272 | 9.7 | 29.0 | 0.00 | 0.00 | 0.00 | 45 | 1007.2 |
| 20260505194503 | 25 | 283 | 8.0 | 33.8 | 0.00 | 0.00 | 0.00 | 46 | 1007.2 |
| 20260505194003 | 25 | 271 | 9.7 | 37.0 | 0.00 | 0.00 | 0.00 | 46 | 1007.2 |
| 20260505193503 | 25 | 262 | 9.7 | 37.0 | 0.00 | 0.00 | 0.00 | 45 | 1007.2 |
| 20260505193003 | 25 | 280 | 8.0 | 29.0 | 0.00 | 0.00 | 0.00 | 46 | 1007.2 |
| 20260505192503 | 25 | 292 | 9.7 | 30.6 | 0.00 | 0.00 | 0.00 | 46 | 1007.2 |
| 20260505192003 | 25 | 317 | 9.7 | 30.6 | 0.00 | 0.00 | 0.00 | 46 | 1007.2 |
| 20260505191503 | 25 | 309 | 9.7 | 20.9 | 0.00 | 0.00 | 0.00 | 46 | 1007.2 |
| 20260505191003 | 25 | 300 | 9.7 | 25.7 | 0.00 | 0.00 | 0.00 | 46 | 1007.2 |
| 20260505190503 | 25 | 274 | 8.0 | 27.4 | 0.00 | 0.00 | 0.00 | 45 | 1007.5 |
| 20260505190004 | 25 | 308 | 9.7 | 27.4 | 0.00 | 0.00 | 0.00 | 46 | 1007.5 |
| 20260505185503 | 25 | 300 | 8.0 | 24.1 | 0.00 | 0.00 | 0.00 | 45 | 1007.5 |
| 20260505185003 | 25 | 259 | 8.0 | 29.0 | 0.00 | 0.00 | 0.00 | 46 | 1007.9 |
| 20260505184503 | 25 | 250 | 9.7 | 29.0 | 0.00 | 0.00 | 0.00 | 45 | 1007.5 |
| 20260505184003 | 25 | 256 | 11.3 | 27.4 | 0.00 | 0.00 | 0.00 | 44 | 1007.5 |
| 20260505183503 | 26 | 269 | 9.7 | 37.0 | 0.00 | 0.00 | 0.00 | 44 | 1007.5 |